Airfield :
LOGIN :

Register | Disclaimer

   EN    FR    IT 

 










Legend :    VFR   Marginal VFR   IFR   Intensive IFR   Very Intensive IFR
Visi :
Ceiling :
>= 8 km
>= 3000ft
5 to 8 km
1000 to 3000 ft
1500m to 5 km
500 to 1000 ft
800 to 1500m
200 to 500 ft
< 800m
< 200 ft
Symbols :   Thunderstorms  Fog  Heavy snow  Heavy precipitations  Wind > 20 kt
SIGMETs :     Misc.  Thunderstorms  Icing  Turbulence  Mountain Waves  Volcanic Ashes






- Airport Elevation : 160 ft
- IATA code : FMO


EDDG - Münster Osnabrück Int.

CURRENT METAR :
  • 070350Z AUTO 27007KT 9999 SCT039 02/01 Q1015 NOSIG

EXPIRED METARs :
  • 070320Z AUTO 26007KT 9999 FEW044 02/01 Q1015 NOSIG
  • 070250Z AUTO 26006KT 9999 FEW031 02/01 Q1015 NOSIG
  • 070220Z AUTO 26006KT 9999 SCT038 03/02 Q1015 NOSIG
  • 070150Z AUTO 27007KT 9999 FEW006 03/02 Q1015 NOSIG
  • 070120Z AUTO 27008KT 9999 BKN007 BKN034 04/03 Q1015 TEMPO SCT007

TAF TAF EDDG
Valid from the 07 at 00:00 until the 08 at 00:00 UTC


062300Z 0700/0724 26008KT 7000 BKN008
PROB30
TEMPO 0700/0703 3500 -DZ BKN004
BECMG 0701/0704 SCT008 BKN015
PROB30
TEMPO 0704/0707 BKN010
PROB30
TEMPO 0720/0724 BKN010



MET'MAP, your aeronautical weather chart ! - Copyright ORBIFLY December 2007 - Disclaimer

ORBIFLY MET'MAP TEAM :

Programming & Development : Alexandra Zaïnal
Original concept : Baudouin d'Aumeries
Technical & hardware support : Manuel Goepfert
Assistance : Marc-Olivier Méhu




SOURCES & CREDITS :

   NOAA